Port Salerno, Florida
Current Conditions -  °F | °C
As of 3:15 AM on Monday 24 Nov 2014 (Local Time) from KSUA Reporting Station
Clear Clear  
Wind Chill: 73°   Ceiling: Unl
Heat Index: 73°   Visibility: 7mi
Dew Point: 72°   Wind: 5mph
Humidity: 94%   Direction: 180°S
Pressure: 29.95"   Gusts: NA
Location:  27.15°N, 80.2°W
Report Text: KSUA 240815Z AUTO 18004KT 7SM CLR 23/22 A2995 RMK AO2
Loading
Personal Weather Stations






























Interactive Weather Map New forecast layout! Learn more

10-Day Weather Forecast

Advertisements
Track Severe Weather on mobile